Time;durP1;ratioP1;P1;durP2;ratioP2;P2;SDS_P1;SDS_P2;PMS_P1;PMS_P2;Temp;Humidity;BMP_temperature;BMP_pressure;BME280_temperature;BME280_humidity;BME280_pressure;Samples;Min_cycle;Max_cycle;Signal;HPM_P1;HPM_P2
2022/04/01 00:00:27;;;;;;;34.20;17.55;;;;;;;;;;5092370;28;20105;-65
2022/04/01 00:02:54;;;;;;;33.13;18.08;;;;;;;;;;5091751;28;20079;-65
2022/04/01 00:05:21;;;;;;;31.80;16.83;;;;;;;;;;5091973;28;20130;-65
2022/04/01 00:07:48;;;;;;;31.05;17.00;;;;;;;;;;5077165;28;20079;-65
2022/04/01 00:10:14;;;;;;;30.45;17.45;;;;;;;;;;5071797;28;20557;-65
2022/04/01 00:12:46;;;;;;;27.77;16.10;;;;;;;;;;5071386;28;20078;-65
2022/04/01 00:15:13;;;;;;;28.73;15.65;;;;;;;;;;5071741;28;20048;-65
2022/04/01 00:17:41;;;;;;;23.80;14.85;;;;;;;;;;5072120;28;20494;-65
2022/04/01 00:20:09;;;;;;;26.08;15.25;;;;;;;;;;5071500;28;20484;-65
2022/04/01 00:22:36;;;;;;;26.35;15.20;;;;;;;;;;5071501;28;20044;-65
2022/04/01 00:25:04;;;;;;;23.42;14.73;;;;;;;;;;5071636;28;20657;-65
2022/04/01 00:27:30;;;;;;;24.65;14.25;;;;;;;;;;5072130;28;20152;-65
2022/04/01 00:29:57;;;;;;;21.17;13.23;;;;;;;;;;5071616;28;20496;-65
2022/04/01 00:32:24;;;;;;;22.73;12.88;;;;;;;;;;5071284;28;20053;-65
2022/04/01 00:34:51;;;;;;;21.67;13.18;;;;;;;;;;5090841;28;20101;-65
2022/04/01 00:37:18;;;;;;;19.70;11.85;;;;;;;;;;5091826;28;20561;-66
2022/04/01 00:39:45;;;;;;;20.83;12.15;;;;;;;;;;5093184;28;20158;-65
2022/04/01 00:42:12;;;;;;;21.42;12.65;;;;;;;;;;5095919;28;20097;-65
2022/04/01 00:44:40;;;;;;;16.95;10.95;;;;;;;;;;5096019;28;20044;-66
2022/04/01 00:47:08;;;;;;;16.73;11.43;;;;;;;;;;5093986;28;20468;-65
2022/04/01 00:49:35;;;;;;;17.88;11.38;;;;;;;;;;5095883;28;20490;-64
2022/04/01 00:52:04;;;;;;;17.83;10.95;;;;;;;;;;5095611;28;20113;-65
2022/04/01 00:54:31;;;;;;;20.65;11.45;;;;;;;;;;5095614;28;20105;-65
2022/04/01 00:56:57;;;;;;;19.65;12.38;;;;;;;;;;5094770;28;20052;-65
2022/04/01 00:59:25;;;;;;;18.13;10.77;;;;;;;;;;5077496;28;20043;-65
2022/04/01 01:01:52;;;;;;;18.13;10.82;;;;;;;;;;5095630;28;20044;-65
2022/04/01 01:04:19;;;;;;;20.38;10.95;;;;;;;;;;5095410;28;20092;-65
2022/04/01 01:06:51;;;;;;;18.58;10.98;;;;;;;;;;5095372;28;20054;-66
2022/04/01 01:09:19;;;;;;;18.58;10.52;;;;;;;;;;5094478;28;20043;-66
2022/04/01 01:11:49;;;;;;;19.60;11.90;;;;;;;;;;5095225;28;20146;-66
2022/04/01 01:14:26;;;;;;;19.20;11.60;;;;;;;;;;5084366;28;20131;-65
2022/04/01 01:16:53;;;;;;;18.65;11.38;;;;;;;;;;5075187;28;20056;-65
2022/04/01 01:19:20;;;;;;;20.33;11.98;;;;;;;;;;5075274;28;20494;-65
2022/04/01 01:21:49;;;;;;;23.02;13.00;;;;;;;;;;5075249;28;20392;-65
2022/04/01 01:24:19;;;;;;;23.15;13.80;;;;;;;;;;5093449;28;20044;-65
2022/04/01 01:26:50;;;;;;;22.60;13.18;;;;;;;;;;5093227;28;20052;-66
2022/04/01 01:29:19;;;;;;;22.40;13.13;;;;;;;;;;5074783;28;20530;-65
2022/04/01 01:31:48;;;;;;;20.75;13.10;;;;;;;;;;5074626;28;20396;-66
2022/04/01 01:34:16;;;;;;;22.77;12.90;;;;;;;;;;5074446;28;20059;-65
2022/04/01 01:36:42;;;;;;;21.77;12.23;;;;;;;;;;5074871;28;20044;-66
2022/04/01 01:39:09;;;;;;;22.98;12.68;;;;;;;;;;5074419;28;20556;-65
2022/04/01 01:41:35;;;;;;;24.15;13.30;;;;;;;;;;5074393;28;20049;-66
2022/04/01 01:44:04;;;;;;;24.38;13.95;;;;;;;;;;5074415;28;20511;-66
2022/04/01 01:46:30;;;;;;;25.95;13.25;;;;;;;;;;5074362;28;20071;-65
2022/04/01 01:48:57;;;;;;;22.63;13.10;;;;;;;;;;5074316;28;20371;-66
2022/04/01 01:56:54;;;;;;;22.88;13.55;;;;;;;;;;5074208;28;20052;-65
2022/04/01 01:59:20;;;;;;;23.80;13.88;;;;;;;;;;5074030;28;20044;-66
2022/04/01 02:01:47;;;;;;;25.58;14.68;;;;;;;;;;5074343;28;20067;-66
2022/04/01 02:04:14;;;;;;;23.13;13.27;;;;;;;;;;5074059;28;20056;-65
2022/04/01 02:06:40;;;;;;;21.75;13.70;;;;;;;;;;5074192;28;20059;-65
2022/04/01 02:09:07;;;;;;;22.38;12.70;;;;;;;;;;5074118;28;20048;-65
2022/04/01 02:11:37;;;;;;;23.27;13.25;;;;;;;;;;5073767;28;20060;-66
2022/04/01 02:14:04;;;;;;;20.40;12.63;;;;;;;;;;5073792;28;20507;-65
2022/04/01 02:16:31;;;;;;;22.35;12.70;;;;;;;;;;5073940;28;20048;-65
2022/04/01 02:18:58;;;;;;;20.48;12.75;;;;;;;;;;5089204;28;20490;-65
2022/04/01 02:21:24;;;;;;;22.98;13.07;;;;;;;;;;5093907;28;20055;-65
2022/04/01 02:23:51;;;;;;;24.38;13.70;;;;;;;;;;5093780;28;20074;-65
2022/04/01 02:26:18;;;;;;;27.83;13.50;;;;;;;;;;5094011;28;20530;-65
2022/04/01 02:28:44;;;;;;;24.20;13.98;;;;;;;;;;5093708;28;20048;-65
2022/04/01 02:31:11;;;;;;;21.30;12.50;;;;;;;;;;5093928;28;20048;-65
2022/04/01 02:33:38;;;;;;;21.23;13.45;;;;;;;;;;5093889;28;20134;-65
2022/04/01 02:36:10;;;;;;;23.52;13.20;;;;;;;;;;5093846;28;20048;-65
2022/04/01 02:38:41;;;;;;;21.03;13.90;;;;;;;;;;5093617;28;20048;-65
2022/04/01 02:41:11;;;;;;;24.67;13.43;;;;;;;;;;5093506;28;20048;-65
2022/04/01 02:43:38;;;;;;;23.42;14.45;;;;;;;;;;5093635;28;20109;-65
2022/04/01 02:46:05;;;;;;;24.08;14.90;;;;;;;;;;5093716;28;20052;-65
2022/04/01 02:48:32;;;;;;;23.55;14.07;;;;;;;;;;5093954;28;20054;-64
2022/04/01 02:50:58;;;;;;;59.90;29.70;;;;;;;;;;5093280;28;20398;-65
2022/04/01 02:53:26;;;;;;;37.15;19.75;;;;;;;;;;5093270;28;20051;-64
2022/04/01 02:55:53;;;;;;;25.83;15.18;;;;;;;;;;5093593;28;20051;-65
2022/04/01 02:58:20;;;;;;;36.80;21.42;;;;;;;;;;5093390;28;20048;-65
2022/04/01 03:00:47;;;;;;;24.40;14.63;;;;;;;;;;5093074;28;20469;-65
2022/04/01 03:03:14;;;;;;;23.17;13.90;;;;;;;;;;5092752;28;20063;-65
2022/04/01 03:05:44;;;;;;;24.10;15.60;;;;;;;;;;5093167;28;20055;-65
2022/04/01 03:08:11;;;;;;;24.27;15.27;;;;;;;;;;5085408;28;20044;-65
2022/04/01 03:10:43;;;;;;;22.77;15.15;;;;;;;;;;5072929;28;20534;-64
2022/04/01 03:13:10;;;;;;;23.90;15.25;;;;;;;;;;5072881;28;20110;-65
2022/04/01 03:15:37;;;;;;;21.92;14.27;;;;;;;;;;5072786;28;20499;-64
2022/04/01 03:18:04;;;;;;;21.88;14.52;;;;;;;;;;5072542;28;20052;-64
2022/04/01 03:20:35;;;;;;;23.95;14.88;;;;;;;;;;5072801;28;20121;-65
2022/04/01 03:23:03;;;;;;;22.33;14.93;;;;;;;;;;5072773;28;20136;-65
2022/04/01 03:25:32;;;;;;;21.10;13.75;;;;;;;;;;5072581;28;20487;-65
2022/04/01 03:28:00;;;;;;;21.90;13.68;;;;;;;;;;5088212;28;20127;-66
2022/04/01 03:30:27;;;;;;;22.85;14.15;;;;;;;;;;5072420;28;20040;-65
2022/04/01 03:32:54;;;;;;;22.65;13.65;;;;;;;;;;5071952;28;20517;-64
2022/04/01 03:35:21;;;;;;;22.48;13.65;;;;;;;;;;5072618;28;20052;-65
2022/04/01 03:37:51;;;;;;;25.38;15.45;;;;;;;;;;5090887;28;20105;-66
2022/04/01 03:40:19;;;;;;;23.27;14.20;;;;;;;;;;5092496;28;20048;-66
2022/04/01 03:42:46;;;;;;;21.63;14.00;;;;;;;;;;5090399;28;20101;-66
2022/04/01 03:45:14;;;;;;;20.65;13.45;;;;;;;;;;5092438;28;20079;-66
2022/04/01 03:47:40;;;;;;;20.92;12.20;;;;;;;;;;5090711;28;20564;-65
2022/04/01 03:50:09;;;;;;;20.67;12.98;;;;;;;;;;5072275;28;20101;-65
2022/04/01 03:52:36;;;;;;;18.83;12.63;;;;;;;;;;5071945;28;20113;-65
2022/04/01 03:55:05;;;;;;;18.77;12.25;;;;;;;;;;5072192;28;20518;-65
2022/04/01 03:57:36;;;;;;;18.30;11.85;;;;;;;;;;5071949;28;20049;-66
2022/04/01 04:00:12;;;;;;;16.55;11.85;;;;;;;;;;5072042;28;20513;-66
2022/04/01 04:02:43;;;;;;;15.80;11.25;;;;;;;;;;5071951;28;20079;-66
2022/04/01 04:05:10;;;;;;;15.77;11.02;;;;;;;;;;5071950;28;20044;-65
2022/04/01 04:07:39;;;;;;;15.95;11.32;;;;;;;;;;5071901;28;20048;-65
2022/04/01 04:10:06;;;;;;;18.85;12.82;;;;;;;;;;5070536;28;20054;-65
2022/04/01 04:12:37;;;;;;;17.80;12.38;;;;;;;;;;5072936;28;20052;-65
2022/04/01 04:15:05;;;;;;;17.52;12.38;;;;;;;;;;5074681;28;20053;-66
2022/04/01 04:17:39;;;;;;;16.13;11.30;;;;;;;;;;5077136;28;20055;-66
2022/04/01 04:20:10;;;;;;;17.13;11.93;;;;;;;;;;5076374;28;20055;-66
2022/04/01 04:22:57;;;;;;;17.20;11.63;;;;;;;;;;5075336;28;20054;-65
2022/04/01 04:25:34;;;;;;;17.70;11.10;;;;;;;;;;5085018;28;20052;-66
2022/04/01 04:28:10;;;;;;;17.90;11.95;;;;;;;;;;5077957;28;20474;-66
2022/04/01 04:30:45;;;;;;;16.50;11.40;;;;;;;;;;5075753;28;20045;-65
2022/04/01 04:33:12;;;;;;;18.70;11.40;;;;;;;;;;5073714;28;20400;-66
2022/04/01 04:35:40;;;;;;;19.02;11.68;;;;;;;;;;5074462;28;20071;-67
2022/04/01 04:38:10;;;;;;;17.75;12.07;;;;;;;;;;5087461;28;20074;-66
2022/04/01 04:40:41;;;;;;;17.35;11.10;;;;;;;;;;5094182;28;20651;-66
2022/04/01 04:43:10;;;;;;;21.45;11.98;;;;;;;;;;5095477;28;20525;-65
2022/04/01 04:45:37;;;;;;;19.20;12.52;;;;;;;;;;5095580;28;20048;-66
2022/04/01 04:48:16;;;;;;;18.77;12.55;;;;;;;;;;5078208;28;20048;-65
2022/04/01 04:50:47;;;;;;;20.80;12.60;;;;;;;;;;5093127;28;20131;-67
2022/04/01 04:53:14;;;;;;;17.45;12.15;;;;;;;;;;5095098;28;20106;-67
2022/04/01 04:55:41;;;;;;;18.05;12.13;;;;;;;;;;5095404;28;20052;-66
2022/04/01 04:58:12;;;;;;;16.05;11.07;;;;;;;;;;5093970;28;20060;-67
2022/04/01 05:00:40;;;;;;;15.50;10.85;;;;;;;;;;5094804;28;20051;-67
2022/04/01 05:03:23;;;;;;;14.70;10.63;;;;;;;;;;5093079;28;20066;-67
2022/04/01 05:05:56;;;;;;;16.70;11.88;;;;;;;;;;5094418;28;20083;-66
2022/04/01 05:08:37;;;;;;;16.08;11.18;;;;;;;;;;5094261;28;20047;-66
2022/04/01 05:11:12;;;;;;;17.27;11.10;;;;;;;;;;5093591;28;20044;-67
2022/04/01 05:13:50;;;;;;;15.05;10.18;;;;;;;;;;5077169;28;20533;-66
2022/04/01 05:16:59;;;;;;;15.38;11.02;;;;;;;;;;5092914;28;20055;-67
2022/04/01 05:19:31;;;;;;;15.85;10.23;;;;;;;;;;5091369;28;20059;-66
2022/04/01 05:22:06;;;;;;;14.18;9.95;;;;;;;;;;5093642;28;20513;-67
2022/04/01 05:24:39;;;;;;;13.02;9.57;;;;;;;;;;5094896;28;20055;-65
2022/04/01 05:27:17;;;;;;;14.93;10.00;;;;;;;;;;5097345;28;20066;-66
2022/04/01 05:29:59;;;;;;;15.32;9.43;;;;;;;;;;5081002;28;20044;-65
2022/04/01 05:32:29;;;;;;;12.77;9.25;;;;;;;;;;5096393;28;20078;-66
2022/04/01 05:34:57;;;;;;;11.25;8.60;;;;;;;;;;5079436;28;20058;-66
2022/04/01 05:37:28;;;;;;;12.02;9.35;;;;;;;;;;5079138;28;20077;-67
2022/04/01 05:39:58;;;;;;;11.85;8.88;;;;;;;;;;5075014;28;20053;-65
2022/04/01 05:42:32;;;;;;;13.98;9.18;;;;;;;;;;5077963;28;20076;-65
2022/04/01 05:45:00;;;;;;;11.80;9.30;;;;;;;;;;5078512;28;20048;-66
2022/04/01 05:47:30;;;;;;;15.05;9.80;;;;;;;;;;5076790;28;20063;-66
2022/04/01 05:49:58;;;;;;;12.43;9.20;;;;;;;;;;5090116;28;20059;-65
2022/04/01 05:52:25;;;;;;;13.73;9.65;;;;;;;;;;5093825;28;20067;-66
2022/04/01 05:54:53;;;;;;;13.45;8.98;;;;;;;;;;5094129;28;20054;-65
2022/04/01 05:57:20;;;;;;;14.52;9.82;;;;;;;;;;5093582;28;20079;-65
2022/04/01 05:59:47;;;;;;;14.77;9.98;;;;;;;;;;5094458;28;20079;-66
2022/04/01 06:02:47;;;;;;;11.88;9.07;;;;;;;;;;5093943;28;20641;-66
2022/04/01 06:05:29;;;;;;;12.93;9.88;;;;;;;;;;5093201;28;20062;-65
2022/04/01 06:08:20;;;;;;;12.25;9.32;;;;;;;;;;5090782;28;20047;-65
2022/04/01 06:11:16;;;;;;;12.75;9.43;;;;;;;;;;5061302;28;20131;-67
2022/04/01 06:13:55;;;;;;;13.55;9.50;;;;;;;;;;5087157;28;20620;-66
2022/04/01 06:16:42;;;;;;;13.57;9.63;;;;;;;;;;5097161;28;20086;-69
2022/04/01 06:19:45;;;;;;;13.27;10.25;;;;;;;;;;5102014;28;20048;-67
2022/04/01 06:22:14;;;;;;;14.00;9.85;;;;;;;;;;5097624;28;20048;-68
2022/04/01 06:25:00;;;;;;;15.15;11.02;;;;;;;;;;5094457;28;20134;-69
2022/04/01 06:27:51;;;;;;;14.13;9.90;;;;;;;;;;5087983;28;20040;-69
2022/04/01 06:30:19;;;;;;;13.85;10.43;;;;;;;;;;5074275;28;20453;-69
2022/04/01 06:32:56;;;;;;;13.25;10.00;;;;;;;;;;5086292;28;20059;-70
2022/04/01 06:35:44;;;;;;;15.95;11.68;;;;;;;;;;5093934;28;20129;-70
2022/04/01 06:38:13;;;;;;;18.20;12.25;;;;;;;;;;5082222;28;20048;-64
2022/04/01 06:40:52;;;;;;;20.35;14.48;;;;;;;;;;5092392;28;20517;-69
2022/04/01 06:43:19;;;;;;;18.38;12.25;;;;;;;;;;5076744;28;20109;-66
2022/04/01 06:45:45;;;;;;;20.00;13.23;;;;;;;;;;5092426;28;20048;-70
2022/04/01 06:48:12;;;;;;;20.08;14.02;;;;;;;;;;5093738;28;20507;-71
2022/04/01 06:50:42;;;;;;;21.63;15.15;;;;;;;;;;5093595;28;20052;-71
2022/04/01 06:53:09;;;;;;;18.58;12.95;;;;;;;;;;5092630;28;20052;-75
2022/04/01 06:55:43;;;;;;;17.25;12.70;;;;;;;;;;5077803;28;20082;-76
2022/04/01 06:58:11;;;;;;;22.40;14.90;;;;;;;;;;5092283;28;20102;-72
2022/04/01 07:00:42;;;;;;;20.25;13.43;;;;;;;;;;5093667;28;20560;-71
2022/04/01 07:03:10;;;;;;;19.10;13.57;;;;;;;;;;5076101;28;20066;-73
2022/04/01 07:05:38;;;;;;;18.98;13.60;;;;;;;;;;5093239;28;20074;-74
2022/04/01 07:08:06;;;;;;;18.17;12.50;;;;;;;;;;5081686;28;20056;-71
2022/04/01 07:10:33;;;;;;;19.17;14.18;;;;;;;;;;5067868;28;20051;-71
2022/04/01 07:13:00;;;;;;;19.00;13.13;;;;;;;;;;5093263;28;20043;-73
2022/04/01 07:15:27;;;;;;;17.70;13.98;;;;;;;;;;5091401;28;20059;-71
2022/04/01 07:17:55;;;;;;;16.05;11.98;;;;;;;;;;5090643;28;20052;-68
2022/04/01 07:20:21;;;;;;;17.35;13.18;;;;;;;;;;5092702;28;20044;-68
2022/04/01 07:22:51;;;;;;;20.27;13.60;;;;;;;;;;5088714;28;20400;-68
2022/04/01 07:25:19;;;;;;;18.98;13.38;;;;;;;;;;5090481;28;20071;-68
2022/04/01 07:27:46;;;;;;;19.65;13.52;;;;;;;;;;5089801;28;20044;-63
2022/04/01 07:30:13;;;;;;;18.83;12.40;;;;;;;;;;5090170;28;20126;-68
2022/04/01 07:32:40;;;;;;;16.48;11.98;;;;;;;;;;5090108;28;20101;-67
2022/04/01 07:35:11;;;;;;;17.05;10.93;;;;;;;;;;5089503;28;20098;-66
2022/04/01 07:37:38;;;;;;;15.65;10.65;;;;;;;;;;5089762;28;20131;-66
2022/04/01 07:40:22;;;;;;;15.02;10.60;;;;;;;;;;5089334;28;20048;-67
2022/04/01 07:42:49;;;;;;;12.15;8.75;;;;;;;;;;5089587;28;20113;-67
2022/04/01 07:45:16;;;;;;;12.07;9.68;;;;;;;;;;5089609;28;20079;-66
2022/04/01 07:47:44;;;;;;;12.18;8.95;;;;;;;;;;5089165;28;20055;-66
2022/04/01 07:50:13;;;;;;;10.60;8.57;;;;;;;;;;5088629;28;20124;-64
2022/04/01 07:52:43;;;;;;;9.93;7.78;;;;;;;;;;5088249;28;20511;-67
2022/04/01 07:55:13;;;;;;;11.77;8.15;;;;;;;;;;5089403;28;20052;-65
2022/04/01 07:57:41;;;;;;;12.23;9.30;;;;;;;;;;5089655;28;20669;-65
2022/04/01 08:00:14;;;;;;;11.52;8.45;;;;;;;;;;5089667;28;20079;-65
2022/04/01 08:02:43;;;;;;;9.35;7.57;;;;;;;;;;5088806;28;20584;-65
2022/04/01 08:05:12;;;;;;;9.38;7.05;;;;;;;;;;5085592;28;20051;-67
2022/04/01 08:07:40;;;;;;;8.07;6.78;;;;;;;;;;5088491;28;20044;-65
2022/04/01 08:10:08;;;;;;;9.80;7.45;;;;;;;;;;5089069;28;20477;-65
2022/04/01 08:12:40;;;;;;;9.82;6.90;;;;;;;;;;5087695;28;20210;-67
2022/04/01 08:15:11;;;;;;;9.40;6.10;;;;;;;;;;5089936;28;20582;-66
2022/04/01 08:17:44;;;;;;;8.73;6.43;;;;;;;;;;5093510;28;20074;-65
2022/04/01 08:20:15;;;;;;;8.23;5.95;;;;;;;;;;5092383;28;20071;-65
2022/04/01 08:22:51;;;;;;;8.90;6.68;;;;;;;;;;5090125;28;20102;-66
2022/04/01 08:25:25;;;;;;;7.05;5.90;;;;;;;;;;5091559;28;20067;-67
2022/04/01 08:28:01;;;;;;;8.73;7.10;;;;;;;;;;5088732;28;20044;-66
2022/04/01 08:30:29;;;;;;;7.55;6.05;;;;;;;;;;5092402;28;20040;-64
2022/04/01 08:32:56;;;;;;;9.02;7.38;;;;;;;;;;5086453;28;20055;-66
2022/04/01 08:35:22;;;;;;;11.23;9.52;;;;;;;;;;5088970;28;20056;-66
2022/04/01 08:37:49;;;;;;;11.75;9.43;;;;;;;;;;5089206;28;20670;-65
2022/04/01 08:40:16;;;;;;;11.95;9.50;;;;;;;;;;5088471;28;20044;-65
2022/04/01 08:42:47;;;;;;;12.75;10.15;;;;;;;;;;5088383;28;20052;-65
2022/04/01 08:45:17;;;;;;;11.75;10.18;;;;;;;;;;5088912;28;20048;-65
2022/04/01 08:47:43;;;;;;;18.58;12.18;;;;;;;;;;5084830;28;20056;-64
2022/04/01 08:50:10;;;;;;;16.05;12.05;;;;;;;;;;5089241;28;20048;-65
2022/04/01 08:52:37;;;;;;;15.88;10.77;;;;;;;;;;5088530;28;20056;-65
2022/04/01 08:55:06;;;;;;;13.52;9.32;;;;;;;;;;5088767;28;20055;-66
2022/04/01 08:57:37;;;;;;;13.32;9.98;;;;;;;;;;5088573;28;20048;-63
2022/04/01 09:00:30;;;;;;;11.85;9.93;;;;;;;;;;5089033;28;20429;-65
2022/04/01 09:03:02;;;;;;;9.00;7.53;;;;;;;;;;5091734;28;20055;-66
2022/04/01 09:05:29;;;;;;;9.10;7.45;;;;;;;;;;5092521;28;20595;-68
2022/04/01 09:08:03;;;;;;;11.00;8.13;;;;;;;;;;5092750;28;20048;-65
2022/04/01 09:10:31;;;;;;;9.55;7.05;;;;;;;;;;5091997;28;20054;-68
2022/04/01 09:12:57;;;;;;;9.18;7.15;;;;;;;;;;5068759;28;20055;-66
2022/04/01 09:15:39;;;;;;;7.65;6.25;;;;;;;;;;5091064;28;20048;-65
2022/04/01 09:18:06;;;;;;;8.90;6.68;;;;;;;;;;5091639;28;20486;-65
2022/04/01 09:20:44;;;;;;;12.20;7.38;;;;;;;;;;5091566;28;20043;-65
2022/04/01 09:23:11;;;;;;;9.55;6.82;;;;;;;;;;5092751;28;20040;-65
2022/04/01 09:25:46;;;;;;;11.52;8.88;;;;;;;;;;5092119;28;20445;-65
2022/04/01 09:28:25;;;;;;;10.52;8.07;;;;;;;;;;5091120;28;20044;-66
2022/04/01 09:31:00;;;;;;;9.80;7.60;;;;;;;;;;5090603;28;20040;-64
2022/04/01 09:33:47;;;;;;;8.70;7.10;;;;;;;;;;5062495;28;20057;-60
2022/04/01 09:36:19;;;;;;;10.32;8.55;;;;;;;;;;5036814;28;20056;-63
2022/04/01 09:39:09;;;;;;;8.95;7.40;;;;;;;;;;5041600;28;20061;-65
2022/04/01 09:41:39;;;;;;;8.18;6.47;;;;;;;;;;5036857;28;20053;-66
2022/04/01 09:44:26;;;;;;;8.88;7.15;;;;;;;;;;5041061;28;20059;-63
2022/04/01 09:46:54;;;;;;;9.10;7.35;;;;;;;;;;5040015;28;20118;-62
2022/04/01 09:49:39;;;;;;;8.30;7.07;;;;;;;;;;5041130;28;20049;-65
2022/04/01 09:52:09;;;;;;;7.93;7.00;;;;;;;;;;5038941;28;20111;-63
2022/04/01 09:54:46;;;;;;;9.50;7.25;;;;;;;;;;5038081;28;20455;-64
2022/04/01 09:57:14;;;;;;;9.52;6.47;;;;;;;;;;5041326;28;20050;-64
2022/04/01 09:59:44;;;;;;;9.77;7.55;;;;;;;;;;5039993;28;20045;-64
2022/04/01 10:02:11;;;;;;;9.70;7.20;;;;;;;;;;5037515;28;20046;-64
2022/04/01 10:04:37;;;;;;;9.52;7.10;;;;;;;;;;5041119;28;20522;-64
2022/04/01 10:07:04;;;;;;;9.45;7.55;;;;;;;;;;5036929;28;20049;-64
2022/04/01 10:09:32;;;;;;;7.88;6.85;;;;;;;;;;5039654;28;20553;-63
2022/04/01 10:12:19;;;;;;;8.52;7.47;;;;;;;;;;5040506;28;20068;-63
2022/04/01 10:14:46;;;;;;;9.30;7.63;;;;;;;;;;5036321;28;20084;-64
2022/04/01 10:17:23;;;;;;;8.20;6.97;;;;;;;;;;5023696;28;20044;-64
2022/04/01 10:19:50;;;;;;;8.27;6.90;;;;;;;;;;5021034;28;20041;-63
2022/04/01 10:22:17;;;;;;;8.55;6.57;;;;;;;;;;5037067;28;20041;-64
2022/04/01 10:24:56;;;;;;;9.07;6.75;;;;;;;;;;5040426;28;20102;-64
2022/04/01 10:27:46;;;;;;;7.60;6.80;;;;;;;;;;5021769;28;20064;-63
2022/04/01 10:30:15;;;;;;;8.38;7.18;;;;;;;;;;5024075;28;20709;-63
2022/04/01 10:32:46;;;;;;;10.48;8.02;;;;;;;;;;5041539;28;20474;-64
2022/04/01 10:35:31;;;;;;;9.40;7.75;;;;;;;;;;5037235;28;20045;-64
2022/04/01 10:38:06;;;;;;;8.98;7.82;;;;;;;;;;5036978;28;20060;-63
2022/04/01 10:40:35;;;;;;;9.43;5.90;;;;;;;;;;5039062;28;20056;-64
2022/04/01 10:43:19;;;;;;;5.93;5.30;;;;;;;;;;5037665;28;20104;-64
2022/04/01 10:46:06;;;;;;;5.95;5.28;;;;;;;;;;5041030;28;20057;-64
2022/04/01 10:51:36;;;;;;;6.18;5.40;;;;;;;;;;5040412;28;20102;-64
2022/04/01 10:54:23;;;;;;;7.40;6.10;;;;;;;;;;5039859;28;20041;-64
2022/04/01 10:57:05;;;;;;;6.07;5.15;;;;;;;;;;5035240;28;20069;-64
2022/04/01 10:59:45;;;;;;;7.30;5.82;;;;;;;;;;5037585;28;20057;-64
2022/04/01 11:02:15;;;;;;;6.03;5.20;;;;;;;;;;5037129;28;20067;-64
2022/04/01 11:04:44;;;;;;;6.43;5.63;;;;;;;;;;5039459;28;20049;-63
2022/04/01 11:07:28;;;;;;;5.57;4.78;;;;;;;;;;5038699;28;20760;-64
2022/04/01 11:10:04;;;;;;;6.05;5.45;;;;;;;;;;5036947;28;20053;-66
2022/04/01 11:12:36;;;;;;;4.88;4.43;;;;;;;;;;5039718;28;20056;-66
2022/04/01 11:15:09;;;;;;;5.60;5.03;;;;;;;;;;5039851;28;20045;-68
2022/04/01 11:17:35;;;;;;;5.78;5.18;;;;;;;;;;5039329;28;20448;-66
2022/04/01 11:20:03;;;;;;;6.63;5.82;;;;;;;;;;5049163;28;20049;-66
2022/04/01 11:22:34;;;;;;;6.25;5.40;;;;;;;;;;5048228;28;20041;-66
2022/04/01 11:25:00;;;;;;;5.65;5.13;;;;;;;;;;5047584;28;20123;-66
2022/04/01 11:27:28;;;;;;;7.00;5.78;;;;;;;;;;5048475;28;20400;-66
2022/04/01 11:30:13;;;;;;;10.15;8.02;;;;;;;;;;5049258;28;20389;-66
2022/04/01 11:32:44;;;;;;;9.57;8.45;;;;;;;;;;5047787;28;20146;-66
2022/04/01 11:35:12;;;;;;;7.70;6.55;;;;;;;;;;5047547;28;20128;-66
2022/04/01 11:37:42;;;;;;;6.88;6.18;;;;;;;;;;5047714;28;20053;-66
2022/04/01 11:40:09;;;;;;;6.63;5.93;;;;;;;;;;5048131;28;20056;-66
2022/04/01 11:43:03;;;;;;;6.03;5.43;;;;;;;;;;5042307;28;20140;-66
2022/04/01 11:45:37;;;;;;;6.85;6.18;;;;;;;;;;5043827;28;20053;-66
2022/04/01 11:48:26;;;;;;;6.53;5.68;;;;;;;;;;5046617;28;20137;-66
2022/04/01 11:51:04;;;;;;;7.22;6.53;;;;;;;;;;5042652;28;20044;-64
2022/04/01 11:53:36;;;;;;;6.82;6.07;;;;;;;;;;5038080;28;20059;-64
2022/04/01 11:56:08;;;;;;;6.82;6.15;;;;;;;;;;5041117;28;20044;-64
2022/04/01 11:58:47;;;;;;;6.72;5.78;;;;;;;;;;5038608;28;20151;-65
2022/04/01 12:01:15;;;;;;;7.28;6.20;;;;;;;;;;5046218;28;20128;-65
2022/04/01 12:03:43;;;;;;;8.50;7.60;;;;;;;;;;5051245;28;20565;-65
2022/04/01 12:09:05;;;;;;;9.38;7.35;;;;;;;;;;5052092;28;20098;-65
2022/04/01 12:11:40;;;;;;;10.10;7.70;;;;;;;;;;5051740;28;20549;-65
2022/04/01 12:14:07;;;;;;;7.75;6.63;;;;;;;;;;5052017;28;20490;-65
2022/04/01 12:16:41;;;;;;;9.35;8.25;;;;;;;;;;5050645;28;20471;-65
2022/04/01 12:19:20;;;;;;;9.88;8.23;;;;;;;;;;5051854;28;20063;-65
2022/04/01 12:21:49;;;;;;;8.77;7.88;;;;;;;;;;5051447;28;20045;-65
2022/04/01 12:24:17;;;;;;;9.95;8.65;;;;;;;;;;5051959;28;20103;-65
2022/04/01 12:26:46;;;;;;;8.88;7.72;;;;;;;;;;5051295;28;20075;-65
2022/04/01 12:29:23;;;;;;;10.77;8.23;;;;;;;;;;5051622;28;20053;-65
2022/04/01 12:32:02;;;;;;;9.70;8.40;;;;;;;;;;5051638;28;20053;-65
2022/04/01 12:34:30;;;;;;;10.50;8.73;;;;;;;;;;5050687;28;20049;-65
2022/04/01 12:37:00;;;;;;;9.77;8.18;;;;;;;;;;5051910;28;20053;-65
2022/04/01 12:39:35;;;;;;;10.25;8.95;;;;;;;;;;5051794;28;20059;-65
2022/04/01 12:42:07;;;;;;;9.30;8.05;;;;;;;;;;5050272;28;20044;-65
2022/04/01 12:44:35;;;;;;;9.63;8.05;;;;;;;;;;5051605;28;20045;-65
2022/04/01 12:47:03;;;;;;;12.35;9.77;;;;;;;;;;5051534;28;20053;-65
2022/04/01 12:49:34;;;;;;;10.90;9.18;;;;;;;;;;5050635;28;20068;-65
2022/04/01 12:52:02;;;;;;;11.30;10.13;;;;;;;;;;5051315;28;20045;-65
2022/04/01 12:54:33;;;;;;;11.85;9.50;;;;;;;;;;5051453;28;20053;-65
2022/04/01 12:57:02;;;;;;;12.88;10.48;;;;;;;;;;5051618;28;20079;-65
2022/04/01 12:59:34;;;;;;;11.18;9.60;;;;;;;;;;5051242;28;20044;-65
2022/04/01 13:02:23;;;;;;;12.10;10.45;;;;;;;;;;5051268;28;20099;-65
2022/04/01 13:04:51;;;;;;;14.95;11.45;;;;;;;;;;5051397;28;20044;-65
2022/04/01 13:07:31;;;;;;;17.20;12.52;;;;;;;;;;5051356;28;20049;-65
2022/04/01 13:10:00;;;;;;;16.77;13.65;;;;;;;;;;5051222;28;20052;-65
2022/04/01 13:12:44;;;;;;;16.90;13.52;;;;;;;;;;5051239;28;20045;-65
2022/04/01 13:15:12;;;;;;;15.93;12.50;;;;;;;;;;5051414;28;20466;-65
2022/04/01 13:17:56;;;;;;;15.20;12.57;;;;;;;;;;5051347;28;20053;-65
2022/04/01 13:20:28;;;;;;;14.07;11.63;;;;;;;;;;5051070;28;20052;-65
2022/04/01 13:22:55;;;;;;;16.67;13.48;;;;;;;;;;5051143;28;20058;-65
2022/04/01 13:25:25;;;;;;;15.27;12.82;;;;;;;;;;5051391;28;20057;-65
2022/04/01 13:27:52;;;;;;;15.85;13.15;;;;;;;;;;5036149;28;20057;-67
2022/04/01 13:30:19;;;;;;;15.07;12.55;;;;;;;;;;5033655;28;20051;-68
2022/04/01 13:32:46;;;;;;;17.20;13.80;;;;;;;;;;5038488;28;20069;-73
2022/04/01 13:35:13;;;;;;;14.93;11.68;;;;;;;;;;5038916;28;20041;-71
2022/04/01 13:37:41;;;;;;;15.70;12.32;;;;;;;;;;5040174;28;20050;-76
2022/04/01 13:40:08;;;;;;;16.13;13.43;;;;;;;;;;5045159;28;20045;-73
2022/04/01 13:42:35;;;;;;;15.52;12.27;;;;;;;;;;5037903;28;20404;-72
2022/04/01 13:45:03;;;;;;;14.88;12.27;;;;;;;;;;5041490;28;20510;-74
2022/04/01 13:47:30;;;;;;;14.80;10.93;;;;;;;;;;5026388;28;20057;-72
2022/04/01 13:49:56;;;;;;;14.10;11.32;;;;;;;;;;5043434;28;20048;-68
2022/04/01 13:52:24;;;;;;;13.15;11.48;;;;;;;;;;5041204;28;20041;-70
2022/04/01 13:54:51;;;;;;;14.32;11.45;;;;;;;;;;5040605;28;20053;-67
2022/04/01 13:57:18;;;;;;;19.63;12.73;;;;;;;;;;5042029;28;20060;-67
2022/04/01 13:59:46;;;;;;;17.20;12.98;;;;;;;;;;5043379;28;20107;-68
2022/04/01 14:02:13;;;;;;;16.50;13.07;;;;;;;;;;5040608;28;20049;-67
2022/04/01 14:04:41;;;;;;;18.05;13.82;;;;;;;;;;5044910;28;20075;-66
2022/04/01 14:07:08;;;;;;;19.33;14.60;;;;;;;;;;5041923;28;20512;-67
2022/04/01 14:09:42;;;;;;;14.10;12.10;;;;;;;;;;5043404;28;20059;-68
2022/04/01 14:12:28;;;;;;;15.75;13.00;;;;;;;;;;5039253;28;20057;-66
2022/04/01 14:14:55;;;;;;;35.83;21.63;;;;;;;;;;5038841;28;20533;-69
2022/04/01 14:17:23;;;;;;;17.52;13.88;;;;;;;;;;5039905;28;20076;-72
2022/04/01 14:19:50;;;;;;;17.80;14.18;;;;;;;;;;5041244;28;20053;-70
2022/04/01 14:22:17;;;;;;;160.43;19.65;;;;;;;;;;5040767;28;20045;-76
2022/04/01 14:24:44;;;;;;;18.50;14.68;;;;;;;;;;5041511;28;20049;-69
2022/04/01 14:27:10;;;;;;;17.95;13.60;;;;;;;;;;5044546;28;20056;-72
2022/04/01 14:32:23;;;;;;;16.92;13.10;;;;;;;;;;5042596;28;20760;-68
2022/04/01 14:34:50;;;;;;;15.63;12.70;;;;;;;;;;5042222;28;20470;-72
2022/04/01 14:37:19;;;;;;;16.10;12.50;;;;;;;;;;5042544;28;20064;-77
2022/04/01 14:39:45;;;;;;;15.25;12.52;;;;;;;;;;5042811;28;20127;-64
2022/04/01 14:42:12;;;;;;;15.43;12.65;;;;;;;;;;5039942;28;20049;-67
2022/04/01 14:44:39;;;;;;;18.42;13.75;;;;;;;;;;5039143;28;20045;-63
2022/04/01 14:47:05;;;;;;;20.40;14.55;;;;;;;;;;5037739;28;20425;-63
2022/04/01 14:49:32;;;;;;;19.08;14.27;;;;;;;;;;5039367;28;20059;-63
2022/04/01 14:51:59;;;;;;;17.10;13.45;;;;;;;;;;5036926;28;20091;-63
2022/04/01 14:54:26;;;;;;;17.65;13.70;;;;;;;;;;5038739;28;20419;-63
2022/04/01 14:56:53;;;;;;;21.48;15.35;;;;;;;;;;5036714;28;20049;-63
2022/04/01 14:59:22;;;;;;;21.58;16.20;;;;;;;;;;5039335;28;20143;-65
2022/04/01 15:01:50;;;;;;;21.33;15.73;;;;;;;;;;5039452;28;20049;-65